Colonial Heights, Tennessee
Current Conditions -  °F | °C
As of 3:53 PM on Sunday 23 Nov 2014 (Local Time) from KTRI Reporting Station
Light Rain Light Rain  
Wind Chill: 57°   Ceiling: 12000
Heat Index: 57°   Visibility: 10mi
Dew Point: 48°   Wind: 8mph
Humidity: 72%   Direction: 110°ESE
Pressure: 29.82"   Gusts: NA
Location:  36.4621°N, 82.5069°W
Report Text: KTRI 232053Z 11007KT 10SM -RA FEW045 SCT100 BKN120 OVC250 14/09 A2982 RMK AO2 RAE27B51 SLP089 P0001 60003 T01390089 56037
Loading
Personal Weather Stations






























Interactive Weather Map New forecast layout! Learn more

10-Day Weather Forecast

Advertisements
Track Severe Weather on mobile